JFA22R LFCF-LFBO
Flight info
| Callsign | JFA22R |
|---|---|
| Flight time | 0h 25m |
| Altitude | 5500 |
| Route | AULON N/LFBO |
| Aircraft | PC12/L-SBDFGRWY/LB1 |
Departure
| Time | 2026-04-23 19:41 |
|---|---|
| Airport | Aérodrome de Figeac - Livernon (LFCF) |
Arrival
| Time | 2026-04-23 20:07 |
|---|---|
| Airport | Toulouse-Blagnac Airport (LFBO) |
| Time | Latitude | Longitude | Altitude | Speed | Heading |
|---|---|---|---|---|---|
| 2026-04-23 19:21 | 44.67079 | 1.79006 | 1080 ft | 0 kts | 109° |
| 2026-04-23 19:37 | 44.67077 | 1.79017 | 1080 ft | 0 kts | 106° |
| 2026-04-23 19:37 | 44.67077 | 1.79024 | 1080 ft | 2 kts | 52° |
| 2026-04-23 19:37 | 44.67089 | 1.79018 | 1080 ft | 3 kts | 279° |
| 2026-04-23 19:38 | 44.67099 | 1.78952 | 1079 ft | 12 kts | 289° |
| 2026-04-23 19:38 | 44.67133 | 1.78934 | 1079 ft | 0 kts | 20° |
| 2026-04-23 19:39 | 44.67144 | 1.78940 | 1080 ft | 7 kts | 20° |
| 2026-04-23 19:39 | 44.67210 | 1.78937 | 1079 ft | 12 kts | 292° |
| 2026-04-23 19:39 | 44.67245 | 1.78784 | 1078 ft | 19 kts | 288° |
| 2026-04-23 19:39 | 44.67294 | 1.78576 | 1075 ft | 24 kts | 291° |
| 2026-04-23 19:40 | 44.67356 | 1.78350 | 1073 ft | 21 kts | 283° |
| 2026-04-23 19:40 | 44.67369 | 1.78290 | 1072 ft | 3 kts | 66° |
| 2026-04-23 19:40 | 44.67367 | 1.78301 | 1072 ft | 1 kts | 107° |
| 2026-04-23 19:40 | 44.67365 | 1.78311 | 1072 ft | 2 kts | 109° |
| 2026-04-23 19:41 | 44.67329 | 1.78445 | 1074 ft | 42 kts | 109° |
| 2026-04-23 19:41 | 44.67162 | 1.79130 | 1241 ft | 88 kts | 102° |
| 2026-04-23 19:41 | 44.66989 | 1.79971 | 1573 ft | 103 kts | 109° |
| 2026-04-23 19:41 | 44.66753 | 1.80911 | 2222 ft | 103 kts | 110° |
| 2026-04-23 19:42 | 44.66371 | 1.81971 | 2520 ft | 135 kts | 115° |
| 2026-04-23 19:42 | 44.66187 | 1.83187 | 3253 ft | 137 kts | 84° |
| 2026-04-23 19:42 | 44.66929 | 1.84203 | 3654 ft | 177 kts | 17° |
| 2026-04-23 19:42 | 44.68063 | 1.83655 | 4396 ft | 181 kts | 317° |
| 2026-04-23 19:43 | 44.68600 | 1.82097 | 4896 ft | 187 kts | 269° |
| 2026-04-23 19:43 | 44.68347 | 1.80351 | 5380 ft | 180 kts | 250° |
| 2026-04-23 19:43 | 44.67804 | 1.78784 | 5642 ft | 182 kts | 220° |
| 2026-04-23 19:43 | 44.66699 | 1.77828 | 5662 ft | 191 kts | 198° |
| 2026-04-23 19:44 | 44.65422 | 1.77152 | 5655 ft | 201 kts | 194° |
| 2026-04-23 19:44 | 44.64080 | 1.76525 | 5656 ft | 208 kts | 193° |
| 2026-04-23 19:44 | 44.62678 | 1.75888 | 5655 ft | 213 kts | 193° |
| 2026-04-23 19:44 | 44.61251 | 1.75242 | 5650 ft | 216 kts | 193° |
| 2026-04-23 19:45 | 44.59811 | 1.74593 | 5641 ft | 218 kts | 194° |
| 2026-04-23 19:45 | 44.58367 | 1.73942 | 5642 ft | 218 kts | 194° |
| 2026-04-23 19:45 | 44.56949 | 1.73304 | 5647 ft | 219 kts | 193° |
| 2026-04-23 19:45 | 44.55467 | 1.72637 | 5642 ft | 219 kts | 193° |
| 2026-04-23 19:46 | 44.53999 | 1.71978 | 5635 ft | 220 kts | 193° |
| 2026-04-23 19:46 | 44.52549 | 1.71327 | 5634 ft | 220 kts | 193° |
| 2026-04-23 19:46 | 44.51076 | 1.70666 | 5635 ft | 220 kts | 193° |
| 2026-04-23 19:46 | 44.49613 | 1.70009 | 5637 ft | 220 kts | 193° |
| 2026-04-23 19:47 | 44.48642 | 1.69575 | 5636 ft | 220 kts | 194° |
| 2026-04-23 19:47 | 44.46688 | 1.68700 | 5634 ft | 220 kts | 194° |
| 2026-04-23 19:47 | 44.45234 | 1.68049 | 5631 ft | 220 kts | 194° |
| 2026-04-23 19:47 | 44.43766 | 1.67391 | 5631 ft | 220 kts | 194° |
| 2026-04-23 19:48 | 44.42308 | 1.66738 | 5633 ft | 220 kts | 194° |
| 2026-04-23 19:48 | 44.40854 | 1.66088 | 5634 ft | 220 kts | 194° |
| 2026-04-23 19:48 | 44.39393 | 1.65435 | 5632 ft | 220 kts | 194° |
| 2026-04-23 19:48 | 44.37933 | 1.64773 | 5634 ft | 220 kts | 197° |
| 2026-04-23 19:49 | 44.36585 | 1.63719 | 5632 ft | 220 kts | 196° |
| 2026-04-23 19:49 | 44.35094 | 1.63446 | 5626 ft | 217 kts | 189° |
| 2026-04-23 19:49 | 44.33657 | 1.62773 | 5622 ft | 219 kts | 196° |
| 2026-04-23 19:49 | 44.32219 | 1.62017 | 5626 ft | 220 kts | 197° |
| 2026-04-23 19:50 | 44.30794 | 1.61259 | 5626 ft | 220 kts | 197° |
| 2026-04-23 19:50 | 44.29355 | 1.60498 | 5624 ft | 220 kts | 197° |
| 2026-04-23 19:50 | 44.27906 | 1.59734 | 5626 ft | 225 kts | 197° |
| 2026-04-23 19:50 | 44.26428 | 1.58958 | 5622 ft | 229 kts | 197° |
| 2026-04-23 19:51 | 44.24926 | 1.58170 | 5621 ft | 231 kts | 197° |
| 2026-04-23 19:51 | 44.23415 | 1.57378 | 5624 ft | 233 kts | 197° |
| 2026-04-23 19:51 | 44.21881 | 1.56576 | 5624 ft | 234 kts | 197° |
| 2026-04-23 19:51 | 44.20349 | 1.55775 | 5623 ft | 235 kts | 197° |
| 2026-04-23 19:52 | 44.19326 | 1.55240 | 5618 ft | 235 kts | 197° |
| 2026-04-23 19:52 | 44.17280 | 1.54178 | 5615 ft | 236 kts | 197° |
| 2026-04-23 19:52 | 44.15739 | 1.53380 | 5618 ft | 235 kts | 197° |
| 2026-04-23 19:52 | 44.14209 | 1.52589 | 5620 ft | 235 kts | 197° |
| 2026-04-23 19:53 | 44.12666 | 1.51789 | 5619 ft | 235 kts | 197° |
| 2026-04-23 19:53 | 44.11125 | 1.50994 | 5619 ft | 235 kts | 197° |
| 2026-04-23 19:53 | 44.09586 | 1.50203 | 5613 ft | 235 kts | 197° |
| 2026-04-23 19:53 | 44.08058 | 1.49419 | 5586 ft | 234 kts | 197° |
| 2026-04-23 19:54 | 44.06533 | 1.48624 | 5338 ft | 232 kts | 197° |
| 2026-04-23 19:54 | 44.05045 | 1.47840 | 5094 ft | 230 kts | 197° |
| 2026-04-23 19:54 | 44.03541 | 1.47030 | 4845 ft | 229 kts | 197° |
| 2026-04-23 19:54 | 44.02075 | 1.46227 | 4599 ft | 228 kts | 197° |
| 2026-04-23 19:55 | 44.00588 | 1.45404 | 4346 ft | 227 kts | 197° |
| 2026-04-23 19:55 | 43.99131 | 1.44596 | 4099 ft | 227 kts | 197° |
| 2026-04-23 19:55 | 43.97649 | 1.43763 | 3848 ft | 227 kts | 197° |
| 2026-04-23 19:55 | 43.96193 | 1.42922 | 3599 ft | 227 kts | 197° |
| 2026-04-23 19:56 | 43.94746 | 1.42069 | 3353 ft | 226 kts | 197° |
| 2026-04-23 19:56 | 43.93322 | 1.41207 | 3101 ft | 221 kts | 197° |
| 2026-04-23 19:56 | 43.91923 | 1.40339 | 2851 ft | 218 kts | 197° |
| 2026-04-23 19:56 | 43.90533 | 1.39478 | 2599 ft | 216 kts | 197° |
| 2026-04-23 19:57 | 43.89200 | 1.38642 | 2497 ft | 209 kts | 197° |
| 2026-04-23 19:57 | 43.87898 | 1.37815 | 2496 ft | 201 kts | 197° |
| 2026-04-23 19:57 | 43.87052 | 1.37273 | 2497 ft | 197 kts | 197° |
| 2026-04-23 19:57 | 43.85421 | 1.36234 | 2440 ft | 193 kts | 197° |
| 2026-04-23 19:58 | 43.84178 | 1.35457 | 2340 ft | 194 kts | 197° |
| 2026-04-23 19:58 | 43.82948 | 1.34695 | 2238 ft | 194 kts | 197° |
| 2026-04-23 19:58 | 43.81701 | 1.34203 | 2135 ft | 178 kts | 168° |
| 2026-04-23 19:58 | 43.80671 | 1.34801 | 2032 ft | 148 kts | 144° |
| 2026-04-23 19:59 | 43.79846 | 1.35509 | 1919 ft | 132 kts | 146° |
| 2026-04-23 19:59 | 43.79026 | 1.35953 | 1815 ft | 122 kts | 158° |
| 2026-04-23 19:59 | 43.78231 | 1.36229 | 1698 ft | 117 kts | 159° |
| 2026-04-23 19:59 | 43.77377 | 1.36518 | 1611 ft | 134 kts | 159° |
| 2026-04-23 20:00 | 43.76437 | 1.36871 | 1522 ft | 146 kts | 157° |
| 2026-04-23 20:00 | 43.75442 | 1.37309 | 1492 ft | 150 kts | 157° |
| 2026-04-23 20:00 | 43.74450 | 1.37763 | 1486 ft | 148 kts | 158° |
| 2026-04-23 20:00 | 43.73505 | 1.38192 | 1479 ft | 134 kts | 155° |
| 2026-04-23 20:01 | 43.72652 | 1.38578 | 1481 ft | 125 kts | 157° |
| 2026-04-23 20:01 | 43.71827 | 1.38956 | 1487 ft | 124 kts | 157° |
| 2026-04-23 20:01 | 43.71002 | 1.39317 | 1488 ft | 124 kts | 156° |
| 2026-04-23 20:01 | 43.70178 | 1.39660 | 1493 ft | 123 kts | 157° |
| 2026-04-23 20:02 | 43.69352 | 1.40027 | 1493 ft | 129 kts | 155° |
| 2026-04-23 20:02 | 43.68474 | 1.40419 | 1493 ft | 134 kts | 156° |
| 2026-04-23 20:02 | 43.67577 | 1.40817 | 1494 ft | 135 kts | 157° |
| 2026-04-23 20:02 | 43.66690 | 1.41222 | 1485 ft | 134 kts | 156° |
| 2026-04-23 20:03 | 43.65818 | 1.41592 | 1495 ft | 128 kts | 164° |
| 2026-04-23 20:03 | 43.65003 | 1.41287 | 1491 ft | 119 kts | 210° |
| 2026-04-23 20:03 | 43.64540 | 1.40360 | 1395 ft | 112 kts | 231° |
| 2026-04-23 20:03 | 43.64376 | 1.39343 | 1329 ft | 115 kts | 283° |
| 2026-04-23 20:04 | 43.64851 | 1.38509 | 1332 ft | 110 kts | 326° |
| 2026-04-23 20:04 | 43.65396 | 1.37739 | 1375 ft | 115 kts | 309° |
| 2026-04-23 20:04 | 43.65890 | 1.36835 | 1412 ft | 121 kts | 309° |
| 2026-04-23 20:04 | 43.66403 | 1.35871 | 1450 ft | 124 kts | 307° |
| 2026-04-23 20:05 | 43.66776 | 1.35283 | 1487 ft | 123 kts | 317° |
| 2026-04-23 20:05 | 43.67006 | 1.33969 | 1273 ft | 107 kts | 224° |
| 2026-04-23 20:05 | 43.66396 | 1.33777 | 1184 ft | 89 kts | 156° |
| 2026-04-23 20:05 | 43.65809 | 1.34043 | 1158 ft | 86 kts | 147° |
| 2026-04-23 20:06 | 43.65260 | 1.34400 | 1201 ft | 76 kts | 147° |
| 2026-04-23 20:06 | 43.64772 | 1.34763 | 1061 ft | 83 kts | 151° |
| 2026-04-23 20:06 | 43.64296 | 1.35193 | 847 ft | 86 kts | 140° |
| 2026-04-23 20:06 | 43.63835 | 1.35665 | 580 ft | 79 kts | 140° |
| 2026-04-23 20:07 | 43.63466 | 1.36047 | 492 ft | 47 kts | 143° |
| 2026-04-23 20:07 | 43.63228 | 1.36296 | 493 ft | 39 kts | 142° |
| 2026-04-23 20:07 | 43.63043 | 1.36488 | 493 ft | 20 kts | 137° |
| 2026-04-23 20:07 | 43.63002 | 1.36630 | 493 ft | 15 kts | 50° |
| 2026-04-23 20:08 | 43.63071 | 1.36739 | 493 ft | 14 kts | 88° |
| 2026-04-23 20:08 | 43.63016 | 1.36829 | 493 ft | 12 kts | 137° |
| 2026-04-23 20:08 | 43.62952 | 1.36898 | 493 ft | 11 kts | 143° |
| 2026-04-23 20:08 | 43.62887 | 1.36967 | 493 ft | 11 kts | 141° |
| 2026-04-23 20:09 | 43.62819 | 1.37038 | 493 ft | 12 kts | 143° |
| 2026-04-23 20:09 | 43.62744 | 1.37110 | 494 ft | 13 kts | 144° |
| 2026-04-23 20:09 | 43.62653 | 1.37203 | 495 ft | 18 kts | 144° |
| 2026-04-23 20:09 | 43.62561 | 1.37297 | 495 ft | 15 kts | 143° |
| 2026-04-23 20:10 | 43.62505 | 1.37354 | 496 ft | 14 kts | 142° |
| 2026-04-23 20:10 | 43.62404 | 1.37461 | 496 ft | 14 kts | 145° |
| 2026-04-23 20:10 | 43.62309 | 1.37562 | 497 ft | 16 kts | 143° |
| 2026-04-23 20:10 | 43.62223 | 1.37652 | 498 ft | 14 kts | 148° |
| 2026-04-23 20:11 | 43.62141 | 1.37735 | 498 ft | 14 kts | 143° |
| 2026-04-23 20:11 | 43.62044 | 1.37835 | 499 ft | 20 kts | 143° |
| 2026-04-23 20:11 | 43.61951 | 1.37930 | 499 ft | 11 kts | 141° |
| 2026-04-23 20:11 | 43.61882 | 1.38004 | 499 ft | 13 kts | 139° |
| 2026-04-23 20:12 | 43.61842 | 1.38091 | 499 ft | 9 kts | 65° |
| 2026-04-23 20:12 | 43.61914 | 1.38127 | 498 ft | 12 kts | 356° |
| 2026-04-23 20:12 | 43.61995 | 1.38042 | 498 ft | 14 kts | 337° |
| 2026-04-23 20:12 | 43.62062 | 1.38062 | 498 ft | 9 kts | 338° |
| 2026-04-23 20:13 | 43.62118 | 1.37997 | 498 ft | 6 kts | 341° |
| 2026-04-23 20:13 | 43.62143 | 1.38030 | 498 ft | 5 kts | 50° |
| 2026-04-23 20:13 | 43.62145 | 1.38034 | 498 ft | 0 kts | 52° |